createdAt,value
2017-12-20T00:00:45.236Z,1024.4
2017-12-20T00:01:48.022Z,1024.4
2017-12-20T00:02:50.522Z,1024.3
2017-12-20T00:03:53.012Z,1024.3
2017-12-20T00:04:55.827Z,1024.3
2017-12-20T00:05:58.331Z,1024.4
2017-12-20T00:07:00.815Z,1024.4
2017-12-20T00:08:03.334Z,1024.4
2017-12-20T00:09:05.827Z,1024.4
2017-12-20T00:10:08.311Z,1024.4
2017-12-20T00:11:10.802Z,1024.4
2017-12-20T00:12:13.294Z,1024.4
2017-12-20T00:13:15.788Z,1024.4
2017-12-20T00:14:18.290Z,1024.4
2017-12-20T00:15:20.769Z,1024.4
2017-12-20T00:16:23.258Z,1024.5
2017-12-20T00:17:25.761Z,1024.5
2017-12-20T00:18:28.548Z,1024.5
2017-12-20T00:19:31.039Z,1024.5
2017-12-20T00:20:33.537Z,1024.5
2017-12-20T00:21:36.021Z,1024.5
2017-12-20T00:22:38.529Z,1024.4
2017-12-20T00:23:41.017Z,1024.4
2017-12-20T00:24:43.498Z,1024.4
2017-12-20T00:25:45.990Z,1024.5
2017-12-20T00:26:48.476Z,1024.5
2017-12-20T00:27:50.966Z,1024.5
2017-12-20T00:28:53.467Z,1024.5
2017-12-20T00:29:55.943Z,1024.5
2017-12-20T00:30:58.433Z,1024.5
2017-12-20T00:32:00.939Z,1024.4
2017-12-20T00:33:03.715Z,1024.4
2017-12-20T00:34:06.508Z,1024.4
2017-12-20T00:35:09.318Z,1024.4
2017-12-20T00:36:11.806Z,1024.4
2017-12-20T00:37:14.299Z,1024.4
2017-12-20T00:38:16.785Z,1024.4
2017-12-20T00:39:19.285Z,1024.4
2017-12-20T00:40:21.768Z,1024.3
2017-12-20T00:41:24.271Z,1024.4
2017-12-20T00:42:26.762Z,1024.4
2017-12-20T00:43:29.258Z,1024.3
2017-12-20T00:44:31.754Z,1024.3
2017-12-20T00:45:34.255Z,1024.3
2017-12-20T00:46:36.744Z,1024.3
2017-12-20T00:47:39.246Z,1024.3
2017-12-20T00:48:41.723Z,1024.3
2017-12-20T00:49:44.216Z,1024.3
2017-12-20T00:50:46.724Z,1024.3
2017-12-20T00:51:49.217Z,1024.4
2017-12-20T00:52:52.013Z,1024.4
2017-12-20T00:53:54.509Z,1024.4
2017-12-20T00:54:56.989Z,1024.4
2017-12-20T00:55:59.796Z,1024.4
2017-12-20T00:57:02.577Z,1024.3
2017-12-20T00:58:05.354Z,1024.3
2017-12-20T00:59:07.849Z,1024.3
2017-12-20T01:00:10.628Z,1024.2
2017-12-20T01:01:13.699Z,1024.2
2017-12-20T01:02:16.197Z,1024.2
2017-12-20T01:03:18.677Z,1024.1
2017-12-20T01:04:21.171Z,1024.2
2017-12-20T01:05:23.667Z,1024.2
2017-12-20T01:06:26.153Z,1024.2
2017-12-20T01:07:28.646Z,1024.2
2017-12-20T01:08:31.140Z,1024.2
2017-12-20T01:09:33.934Z,1024.2
2017-12-20T01:10:36.714Z,1024.2
2017-12-20T01:11:39.202Z,1024.1
2017-12-20T01:12:41.700Z,1024.2
2017-12-20T01:13:44.185Z,1024.1
2017-12-20T01:14:46.677Z,1024.1
2017-12-20T01:15:49.175Z,1024.1
2017-12-20T01:16:51.661Z,1024.1
2017-12-20T01:17:54.153Z,1024.1
2017-12-20T01:18:56.644Z,1024.2
2017-12-20T01:19:59.135Z,1024.2
2017-12-20T01:21:01.923Z,1024.2
2017-12-20T01:22:04.413Z,1024.2
2017-12-20T01:23:06.909Z,1024.2
2017-12-20T01:24:09.410Z,1024.2
2017-12-20T01:25:11.901Z,1024.2
2017-12-20T01:26:14.394Z,1024.1
2017-12-20T01:27:16.893Z,1024.1
2017-12-20T01:28:19.381Z,1024.1
2017-12-20T01:29:21.866Z,1024.2
2017-12-20T01:30:24.364Z,1024.2
2017-12-20T01:31:26.841Z,1024.2
2017-12-20T01:32:29.335Z,1024.2
2017-12-20T01:33:31.826Z,1024.1
2017-12-20T01:34:34.315Z,1024.2
2017-12-20T01:35:36.806Z,1024.2
2017-12-20T01:36:39.593Z,1024.2
2017-12-20T01:37:42.092Z,1024.2
2017-12-20T01:38:44.572Z,1024.2
2017-12-20T01:39:47.061Z,1024.2
2017-12-20T01:40:49.555Z,1024.2
2017-12-20T01:41:52.049Z,1024.2
2017-12-20T01:42:55.120Z,1024.2
2017-12-20T01:43:57.613Z,1024.2
2017-12-20T01:45:00.100Z,1024.2
2017-12-20T01:46:02.603Z,1024.2
2017-12-20T01:47:05.102Z,1024.2
2017-12-20T01:48:07.584Z,1024.1
2017-12-20T01:49:10.088Z,1024.2
2017-12-20T01:50:12.571Z,1024.2
2017-12-20T01:51:15.069Z,1024.2
2017-12-20T01:52:17.564Z,1024.3
2017-12-20T01:53:20.034Z,1024.2
2017-12-20T01:54:22.526Z,1024.2
2017-12-20T01:55:25.035Z,1024.2
2017-12-20T01:56:27.522Z,1024.2
2017-12-20T01:57:30.014Z,1024.2
2017-12-20T01:58:32.790Z,1024.2
2017-12-20T01:59:35.563Z,1024.2
2017-12-20T02:00:38.067Z,1024.2
2017-12-20T02:01:40.875Z,1024.2
2017-12-20T02:02:43.358Z,1024.2
2017-12-20T02:03:45.857Z,1024.1
2017-12-20T02:04:48.346Z,1024.1
2017-12-20T02:05:50.841Z,1024.2
2017-12-20T02:06:53.325Z,1024.1
2017-12-20T02:07:55.823Z,1024.1
2017-12-20T02:08:58.317Z,1024.2
2017-12-20T02:10:01.099Z,1024.1
2017-12-20T02:11:03.580Z,1024.1
2017-12-20T02:12:06.087Z,1024.1
2017-12-20T02:13:08.564Z,1024.1
2017-12-20T02:14:11.071Z,1024
2017-12-20T02:15:13.556Z,1024.1
2017-12-20T02:16:16.052Z,1024.1
2017-12-20T02:17:18.834Z,1024.1
2017-12-20T02:18:21.630Z,1024.1
2017-12-20T02:19:24.109Z,1024.1
2017-12-20T02:20:26.616Z,1024.1
2017-12-20T02:21:29.099Z,1024
2017-12-20T02:22:31.886Z,1024
2017-12-20T02:23:34.374Z,1024
2017-12-20T02:24:36.866Z,1024
2017-12-20T02:25:39.668Z,1024
2017-12-20T02:26:42.176Z,1024
2017-12-20T02:27:44.652Z,1024
2017-12-20T02:28:47.156Z,1024
2017-12-20T02:29:49.935Z,1024
2017-12-20T02:30:52.423Z,1024
2017-12-20T02:31:55.211Z,1023.9
2017-12-20T02:32:57.708Z,1024
2017-12-20T02:34:00.183Z,1024
2017-12-20T02:35:02.983Z,1024
2017-12-20T02:36:05.489Z,1024
2017-12-20T02:37:07.978Z,1024.1
2017-12-20T02:38:10.459Z,1024.1
2017-12-20T02:39:13.277Z,1024
2017-12-20T02:40:15.775Z,1024.1
2017-12-20T02:41:18.591Z,1024.1
2017-12-20T02:42:21.092Z,1024.1
2017-12-20T02:43:23.562Z,1024
2017-12-20T02:44:26.052Z,1024
2017-12-20T02:45:28.560Z,1024
2017-12-20T02:46:31.038Z,1023.9
2017-12-20T02:47:33.553Z,1023.9
2017-12-20T02:48:36.021Z,1023.9
2017-12-20T02:49:38.511Z,1023.9
2017-12-20T02:50:40.997Z,1023.8
2017-12-20T02:51:43.488Z,1023.9
2017-12-20T02:52:45.967Z,1023.9
2017-12-20T02:53:48.456Z,1023.9
2017-12-20T02:54:51.272Z,1023.9
2017-12-20T02:55:53.749Z,1023.9
2017-12-20T02:56:56.246Z,1023.9
2017-12-20T02:57:58.738Z,1023.8
2017-12-20T02:59:01.517Z,1023.9
2017-12-20T03:00:04.014Z,1023.9
2017-12-20T03:01:06.512Z,1023.9
2017-12-20T03:02:08.983Z,1023.9
2017-12-20T03:03:11.788Z,1023.8
2017-12-20T03:04:14.282Z,1023.8
2017-12-20T03:05:16.766Z,1023.9
2017-12-20T03:06:19.250Z,1023.8
2017-12-20T03:07:21.754Z,1023.8
2017-12-20T03:08:24.532Z,1023.8
2017-12-20T03:09:27.029Z,1023.9
2017-12-20T03:10:29.516Z,1023.9
2017-12-20T03:11:32.015Z,1023.9
2017-12-20T03:12:34.510Z,1023.9
2017-12-20T03:13:36.994Z,1023.9
2017-12-20T03:14:39.485Z,1023.9
2017-12-20T03:15:41.976Z,1024
2017-12-20T03:16:44.467Z,1024
2017-12-20T03:17:46.967Z,1024
2017-12-20T03:18:49.443Z,1024
2017-12-20T03:19:51.950Z,1024
2017-12-20T03:20:54.426Z,1024
2017-12-20T03:21:56.920Z,1024
2017-12-20T03:22:59.408Z,1024
2017-12-20T03:24:01.907Z,1024
2017-12-20T03:25:04.396Z,1024.1
2017-12-20T03:26:06.890Z,1024
2017-12-20T03:27:09.681Z,1024
2017-12-20T03:28:12.183Z,1024
2017-12-20T03:29:14.960Z,1024
2017-12-20T03:30:17.444Z,1024
2017-12-20T03:31:20.236Z,1024
2017-12-20T03:32:22.726Z,1024
2017-12-20T03:33:25.221Z,1024
2017-12-20T03:34:27.997Z,1024
2017-12-20T03:35:31.083Z,1024
2017-12-20T03:36:33.575Z,1024
2017-12-20T03:37:36.381Z,1024
2017-12-20T03:38:38.878Z,1024
2017-12-20T03:39:41.378Z,1024
2017-12-20T03:40:43.855Z,1024
2017-12-20T03:41:46.366Z,1024
2017-12-20T03:42:48.834Z,1024
2017-12-20T03:43:51.321Z,1024
2017-12-20T03:44:53.814Z,1024
2017-12-20T03:45:56.298Z,1024
2017-12-20T03:46:58.795Z,1024
2017-12-20T03:48:01.293Z,1024
2017-12-20T03:49:04.077Z,1024
2017-12-20T03:50:06.560Z,1024.1
2017-12-20T03:51:09.052Z,1024.1
2017-12-20T03:52:11.540Z,1024.1
2017-12-20T03:53:14.021Z,1024.1
2017-12-20T03:54:16.530Z,1024.1
2017-12-20T03:55:19.021Z,1024.1
2017-12-20T03:56:21.508Z,1024.2
2017-12-20T03:57:23.994Z,1024.1
2017-12-20T03:58:26.778Z,1024.2
2017-12-20T03:59:29.268Z,1024.1
2017-12-20T04:00:31.768Z,1024.1
2017-12-20T04:01:34.246Z,1024.1
2017-12-20T04:02:36.740Z,1024.1
2017-12-20T04:03:39.247Z,1024.1
2017-12-20T04:04:41.738Z,1024
2017-12-20T04:05:44.222Z,1024.1
2017-12-20T04:06:47.012Z,1024.1
2017-12-20T04:07:49.502Z,1024.1
2017-12-20T04:08:51.984Z,1024
2017-12-20T04:09:54.478Z,1024
2017-12-20T04:10:56.972Z,1024
2017-12-20T04:11:59.994Z,1024
2017-12-20T04:13:02.795Z,1024
2017-12-20T04:14:05.566Z,1024
2017-12-20T04:15:08.053Z,1024
2017-12-20T04:16:10.565Z,1024
2017-12-20T04:17:13.054Z,1024
2017-12-20T04:18:16.146Z,1024
2017-12-20T04:19:18.636Z,1024
2017-12-20T04:20:21.130Z,1024
2017-12-20T04:21:23.906Z,1024
2017-12-20T04:22:26.387Z,1024.1
2017-12-20T04:23:28.876Z,1024.1
2017-12-20T04:24:31.361Z,1024.1
2017-12-20T04:25:33.872Z,1024.1
2017-12-20T04:26:36.353Z,1024.1
2017-12-20T04:27:38.845Z,1024.2
2017-12-20T04:28:41.338Z,1024.2
2017-12-20T04:29:43.839Z,1024.1
2017-12-20T04:30:46.337Z,1024.1
2017-12-20T04:31:48.830Z,1024.1
2017-12-20T04:32:51.316Z,1024.2
2017-12-20T04:33:53.824Z,1024.1
2017-12-20T04:34:56.624Z,1024.2
2017-12-20T04:35:59.118Z,1024.1
2017-12-20T04:37:01.603Z,1024.1
2017-12-20T04:38:04.099Z,1024.2
2017-12-20T04:39:06.583Z,1024.2
2017-12-20T04:40:09.083Z,1024.2
2017-12-20T04:41:11.552Z,1024.2
2017-12-20T04:42:14.051Z,1024.3
2017-12-20T04:43:16.829Z,1024.2
2017-12-20T04:44:19.311Z,1024.2
2017-12-20T04:45:21.803Z,1024.2
2017-12-20T04:46:24.296Z,1024.2
2017-12-20T04:47:26.790Z,1024.2
2017-12-20T04:48:29.295Z,1024.2
2017-12-20T04:49:31.778Z,1024.2
2017-12-20T04:50:34.266Z,1024.2
2017-12-20T04:51:36.833Z,1024.2
2017-12-20T04:52:39.259Z,1024.2
2017-12-20T04:53:42.050Z,1024.2
2017-12-20T04:54:44.547Z,1024.1
2017-12-20T04:55:47.039Z,1024.1
2017-12-20T04:56:49.534Z,1024.1
2017-12-20T04:57:52.033Z,1024.1
2017-12-20T04:58:54.506Z,1024.2
2017-12-20T04:59:57.014Z,1024.1
2017-12-20T05:00:59.504Z,1024.2
2017-12-20T05:02:01.999Z,1024.2
2017-12-20T05:03:04.783Z,1024.2
2017-12-20T05:04:07.281Z,1024.2
2017-12-20T05:05:09.785Z,1024.2
2017-12-20T05:06:12.251Z,1024.1
2017-12-20T05:07:14.746Z,1024.2
2017-12-20T05:08:17.244Z,1024.1
2017-12-20T05:09:19.728Z,1024.2
2017-12-20T05:10:22.223Z,1024.2
2017-12-20T05:11:24.714Z,1024.2
2017-12-20T05:12:27.203Z,1024.2
2017-12-20T05:13:29.709Z,1024.2
2017-12-20T05:14:32.488Z,1024.2
2017-12-20T05:15:34.966Z,1024.2
2017-12-20T05:16:37.462Z,1024.2
2017-12-20T05:17:39.954Z,1024.2
2017-12-20T05:18:42.440Z,1024.2
2017-12-20T05:19:44.939Z,1024.2
2017-12-20T05:20:47.427Z,1024.2
2017-12-20T05:21:49.916Z,1024.2
2017-12-20T05:22:52.422Z,1024.2
2017-12-20T05:23:54.908Z,1024.3
2017-12-20T05:24:57.402Z,1024.2
2017-12-20T05:26:00.194Z,1024.2
2017-12-20T05:27:02.683Z,1024.3
2017-12-20T05:28:05.177Z,1024.2
2017-12-20T05:29:07.674Z,1024.2
2017-12-20T05:30:10.165Z,1024.3
2017-12-20T05:31:12.648Z,1024.2
2017-12-20T05:32:15.147Z,1024.3
2017-12-20T05:33:17.634Z,1024.2
2017-12-20T05:34:20.130Z,1024.3
2017-12-20T05:35:22.612Z,1024.2
2017-12-20T05:36:25.105Z,1024.2
2017-12-20T05:37:27.887Z,1024.2
2017-12-20T05:38:30.375Z,1024.2
2017-12-20T05:39:32.896Z,1024.2
2017-12-20T05:40:35.962Z,1024.2
2017-12-20T05:41:38.452Z,1024.2
2017-12-20T05:42:40.956Z,1024.2
2017-12-20T05:43:43.450Z,1024.2
2017-12-20T05:44:45.944Z,1024.2
2017-12-20T05:45:48.438Z,1024.2
2017-12-20T05:46:50.914Z,1024.2
2017-12-20T05:47:53.408Z,1024.2
2017-12-20T05:48:55.915Z,1024.2
2017-12-20T05:49:58.695Z,1024.3
2017-12-20T05:51:01.199Z,1024.2
2017-12-20T05:52:03.693Z,1024.2
2017-12-20T05:53:06.495Z,1024.3
2017-12-20T05:54:08.993Z,1024.3
2017-12-20T05:55:11.773Z,1024.3
2017-12-20T05:56:14.273Z,1024.3
2017-12-20T05:57:17.063Z,1024.4
2017-12-20T05:58:19.534Z,1024.3
2017-12-20T05:59:22.026Z,1024.3
2017-12-20T06:00:24.518Z,1024.3
2017-12-20T06:01:27.007Z,1024.3
2017-12-20T06:02:29.490Z,1024.3
2017-12-20T06:03:32.291Z,1024.3
2017-12-20T06:04:34.774Z,1024.4
2017-12-20T06:05:37.265Z,1024.4
2017-12-20T06:06:39.760Z,1024.3
2017-12-20T06:07:42.250Z,1024.3
2017-12-20T06:08:44.742Z,1024.4
2017-12-20T06:09:47.241Z,1024.4
2017-12-20T06:10:50.018Z,1024.4
2017-12-20T06:11:52.804Z,1024.4
2017-12-20T06:12:55.434Z,1024.4
2017-12-20T06:13:58.563Z,1024.4
2017-12-20T06:15:01.044Z,1024.5
2017-12-20T06:16:03.535Z,1024.5
2017-12-20T06:17:06.031Z,1024.5
2017-12-20T06:18:08.533Z,1024.5
2017-12-20T06:19:11.023Z,1024.5
2017-12-20T06:20:13.513Z,1024.5
2017-12-20T06:21:21.427Z,1024.5
2017-12-20T06:22:33.022Z,1024.5
2017-12-20T06:23:39.567Z,1024.5
2017-12-20T06:24:48.003Z,1024.5
2017-12-20T06:25:55.003Z,1024.5
2017-12-20T06:27:15.197Z,1024.5
2017-12-20T06:28:22.215Z,1024.5
2017-12-20T06:29:59.585Z,1024.5
2017-12-20T06:31:08.619Z,1024.5
2017-12-20T06:32:17.531Z,1024.6
2017-12-20T06:33:22.148Z,1024.6
2017-12-20T06:34:44.939Z,1024.6
2017-12-20T06:35:49.049Z,1024.6
2017-12-20T06:36:55.129Z,1024.6
2017-12-20T06:38:00.882Z,1024.6
2017-12-20T06:39:08.376Z,1024.6
2017-12-20T06:40:22.330Z,1024.6
2017-12-20T06:41:26.330Z,1024.6
2017-12-20T06:42:30.437Z,1024.6
2017-12-20T06:43:34.511Z,1024.5
2017-12-20T06:44:40.756Z,1024.6
2017-12-20T06:45:54.722Z,1024.6
2017-12-20T06:47:14.177Z,1024.6
2017-12-20T06:48:20.473Z,1024.6
2017-12-20T06:49:32.655Z,1024.6
2017-12-20T06:50:36.085Z,1024.5
2017-12-20T06:51:43.185Z,1024.5
2017-12-20T06:52:47.718Z,1024.5
2017-12-20T06:53:52.736Z,1024.5
2017-12-20T06:54:55.993Z,1024.5
2017-12-20T06:56:00.979Z,1024.5
2017-12-20T06:57:03.999Z,1024.5
2017-12-20T06:58:06.546Z,1024.6
2017-12-20T06:59:09.026Z,1024.6
2017-12-20T07:00:11.526Z,1024.6
2017-12-20T07:01:14.315Z,1024.6
2017-12-20T07:02:16.810Z,1024.6
2017-12-20T07:03:19.308Z,1024.7
2017-12-20T07:04:21.795Z,1024.7
2017-12-20T07:05:24.285Z,1024.7
2017-12-20T07:06:27.213Z,1024.7
2017-12-20T07:07:36.733Z,1024.7
2017-12-20T07:08:42.841Z,1024.7
2017-12-20T07:09:47.391Z,1024.7
2017-12-20T07:10:54.957Z,1024.7
2017-12-20T07:11:59.247Z,1024.7
2017-12-20T07:13:03.410Z,1024.7
2017-12-20T07:14:07.184Z,1024.7
2017-12-20T07:15:11.229Z,1024.7
2017-12-20T07:16:15.622Z,1024.8
2017-12-20T07:17:19.626Z,1024.7
2017-12-20T07:18:22.456Z,1024.8
2017-12-20T07:19:25.359Z,1024.8
2017-12-20T07:20:44.328Z,1024.7
2017-12-20T07:21:59.888Z,1024.8
2017-12-20T07:23:08.044Z,1024.8
2017-12-20T07:24:12.756Z,1024.8
2017-12-20T07:25:17.796Z,1024.8
2017-12-20T07:26:30.580Z,1024.7
2017-12-20T07:27:34.402Z,1024.7
2017-12-20T07:28:39.373Z,1024.7
2017-12-20T07:29:45.450Z,1024.7
2017-12-20T07:30:51.766Z,1024.7
2017-12-20T07:31:59.683Z,1024.7
2017-12-20T07:33:08.414Z,1024.7
2017-12-20T07:34:24.938Z,1024.7
2017-12-20T07:35:43.579Z,1024.7
2017-12-20T07:36:53.376Z,1024.7
2017-12-20T07:37:56.929Z,1024.7
2017-12-20T07:39:01.705Z,1024.7
2017-12-20T07:40:04.817Z,1024.7
2017-12-20T07:41:09.932Z,1024.7
2017-12-20T07:42:14.264Z,1024.7
2017-12-20T07:43:19.600Z,1024.7
2017-12-20T07:44:23.299Z,1024.7
2017-12-20T07:45:26.687Z,1024.8
2017-12-20T07:46:31.337Z,1024.8
2017-12-20T07:47:36.392Z,1024.8
2017-12-20T07:48:42.672Z,1024.8
2017-12-20T07:49:47.664Z,1024.8
2017-12-20T07:50:52.144Z,1024.9
2017-12-20T07:51:57.967Z,1024.9
2017-12-20T07:53:02.742Z,1024.9
2017-12-20T07:54:07.312Z,1024.9
2017-12-20T07:55:13.078Z,1024.9
2017-12-20T07:56:16.067Z,1024.9
2017-12-20T07:57:21.148Z,1024.9
2017-12-20T07:58:25.707Z,1024.9
2017-12-20T07:59:29.244Z,1024.9
2017-12-20T08:00:33.660Z,1025
2017-12-20T08:01:39.771Z,1024.9
2017-12-20T08:02:45.331Z,1024.9
2017-12-20T08:03:48.714Z,1024.9
2017-12-20T08:04:51.500Z,1024.9
2017-12-20T08:05:53.991Z,1024.9
2017-12-20T08:06:56.514Z,1024.9
2017-12-20T08:07:58.997Z,1024.9
2017-12-20T08:09:01.780Z,1024.9
2017-12-20T08:10:04.556Z,1024.9
2017-12-20T08:11:07.067Z,1025
2017-12-20T08:12:09.555Z,1024.9
2017-12-20T08:13:12.348Z,1024.9
2017-12-20T08:14:14.840Z,1024.9
2017-12-20T08:15:17.341Z,1024.9
2017-12-20T08:16:19.831Z,1025
2017-12-20T08:17:22.334Z,1025
2017-12-20T08:18:24.816Z,1025
2017-12-20T08:19:27.318Z,1025
2017-12-20T08:20:29.823Z,1025
2017-12-20T08:21:32.607Z,1025
2017-12-20T08:22:35.113Z,1024.9
2017-12-20T08:23:37.604Z,1025
2017-12-20T08:24:40.374Z,1025
2017-12-20T08:25:43.157Z,1025
2017-12-20T08:26:45.651Z,1025
2017-12-20T08:27:48.139Z,1025
2017-12-20T08:28:50.635Z,1025
2017-12-20T08:29:53.136Z,1025
2017-12-20T08:30:55.623Z,1025
2017-12-20T08:31:58.132Z,1025.1
2017-12-20T08:33:00.616Z,1025
2017-12-20T08:34:03.422Z,1025.1
2017-12-20T08:35:05.926Z,1025.1
2017-12-20T08:36:08.711Z,1025
2017-12-20T08:37:11.210Z,1025.1
2017-12-20T08:38:13.699Z,1025.1
2017-12-20T08:39:16.200Z,1025.1
2017-12-20T08:40:18.701Z,1025.1
2017-12-20T08:41:21.483Z,1025.1
2017-12-20T08:42:23.986Z,1025
2017-12-20T08:43:26.466Z,1025
2017-12-20T08:44:28.966Z,1025
2017-12-20T08:45:31.507Z,1025.1
2017-12-20T08:46:33.947Z,1025.1
2017-12-20T08:47:36.444Z,1025.1
2017-12-20T08:48:38.936Z,1025.1
2017-12-20T08:49:41.720Z,1025.1
2017-12-20T08:50:44.230Z,1025.1
2017-12-20T08:51:47.004Z,1025
2017-12-20T08:52:49.507Z,1025.1
2017-12-20T08:53:52.008Z,1025
2017-12-20T08:54:54.504Z,1025.1
2017-12-20T08:55:57.285Z,1025
2017-12-20T08:57:00.068Z,1025
2017-12-20T08:58:02.560Z,1025
2017-12-20T08:59:05.077Z,1025
2017-12-20T09:00:07.559Z,1025
2017-12-20T09:01:10.056Z,1025
2017-12-20T09:02:12.555Z,1025
2017-12-20T09:03:15.044Z,1025
2017-12-20T09:04:17.545Z,1024.9
2017-12-20T09:05:20.359Z,1024.9
2017-12-20T09:06:22.843Z,1024.9
2017-12-20T09:07:25.625Z,1024.9
2017-12-20T09:08:28.136Z,1024.9
2017-12-20T09:09:30.651Z,1024.9
2017-12-20T09:10:33.452Z,1024.9
2017-12-20T09:11:35.955Z,1024.9
2017-12-20T09:12:38.448Z,1024.9
2017-12-20T09:13:40.944Z,1024.9
2017-12-20T09:14:43.437Z,1024.8
2017-12-20T09:15:46.210Z,1024.8
2017-12-20T09:16:49.013Z,1024.8
2017-12-20T09:17:51.530Z,1024.8
2017-12-20T09:18:54.310Z,1024.9
2017-12-20T09:19:56.808Z,1024.8
2017-12-20T09:20:59.297Z,1024.8
2017-12-20T09:22:01.785Z,1024.8
2017-12-20T09:23:04.591Z,1024.8
2017-12-20T09:24:07.085Z,1024.8
2017-12-20T09:25:10.152Z,1024.8
2017-12-20T09:26:12.662Z,1024.8
2017-12-20T09:27:15.152Z,1024.7
2017-12-20T09:28:17.932Z,1024.7
2017-12-20T09:29:20.432Z,1024.7
2017-12-20T09:30:23.200Z,1024.7
2017-12-20T09:31:25.990Z,1024.7
2017-12-20T09:32:28.493Z,1024.8
2017-12-20T09:33:30.979Z,1024.7
2017-12-20T09:34:33.468Z,1024.8
2017-12-20T09:35:35.963Z,1024.8
2017-12-20T09:36:38.468Z,1024.8
2017-12-20T09:37:40.956Z,1024.8
2017-12-20T09:38:43.452Z,1024.8
2017-12-20T09:39:45.943Z,1024.7
2017-12-20T09:40:48.440Z,1024.7
2017-12-20T09:41:50.926Z,1024.8
2017-12-20T09:42:53.717Z,1024.8
2017-12-20T09:43:56.222Z,1024.7
2017-12-20T09:44:58.715Z,1024.7
2017-12-20T09:46:01.508Z,1024.8
2017-12-20T09:47:04.004Z,1024.7
2017-12-20T09:48:06.501Z,1024.8
2017-12-20T09:49:09.019Z,1024.8
2017-12-20T09:50:11.513Z,1024.8
2017-12-20T09:51:13.996Z,1024.8
2017-12-20T09:52:16.493Z,1024.8
2017-12-20T09:53:18.992Z,1024.8
2017-12-20T09:54:21.790Z,1024.8
2017-12-20T09:55:24.579Z,1024.8
2017-12-20T09:56:27.342Z,1024.8
2017-12-20T09:57:30.131Z,1024.8
2017-12-20T09:58:32.633Z,1024.9
2017-12-20T09:59:35.128Z,1024.8
2017-12-20T10:00:37.632Z,1024.8
2017-12-20T10:01:40.127Z,1024.8
2017-12-20T10:02:42.908Z,1024.9
2017-12-20T10:03:45.419Z,1024.8
2017-12-20T10:04:47.909Z,1024.8
2017-12-20T10:05:50.682Z,1024.8
2017-12-20T10:06:53.173Z,1024.8
2017-12-20T10:07:55.678Z,1024.8
2017-12-20T10:08:58.176Z,1024.7
2017-12-20T10:10:00.668Z,1024.8
2017-12-20T10:11:03.170Z,1024.8
2017-12-20T10:14:36.998Z,1024.8
2017-12-20T10:15:36.834Z,1024.8
2017-12-20T10:16:39.307Z,1024.7
2017-12-20T10:17:41.805Z,1024.8
2017-12-20T10:18:44.302Z,1024.7
2017-12-20T10:19:46.790Z,1024.7
2017-12-20T10:20:49.293Z,1024.7
2017-12-20T10:21:51.793Z,1024.7
2017-12-20T10:22:54.283Z,1024.7
2017-12-20T10:23:56.791Z,1024.6
2017-12-20T10:24:59.274Z,1024.7
2017-12-20T10:26:01.776Z,1024.6
2017-12-20T10:27:04.270Z,1024.6
2017-12-20T10:28:06.763Z,1024.6
2017-12-20T10:29:09.255Z,1024.7
2017-12-20T10:30:11.749Z,1024.6
2017-12-20T10:31:14.243Z,1024.7
2017-12-20T10:32:16.743Z,1024.7
2017-12-20T10:33:19.568Z,1024.7
2017-12-20T10:34:22.070Z,1024.8
2017-12-20T10:35:24.550Z,1024.7
2017-12-20T10:36:27.049Z,1024.8
2017-12-20T10:37:29.558Z,1024.8
2017-12-20T10:38:32.040Z,1024.8
2017-12-20T10:39:34.537Z,1024.8
2017-12-20T10:40:37.033Z,1024.8
2017-12-20T10:41:39.520Z,1024.8
2017-12-20T10:42:42.029Z,1024.8
2017-12-20T10:43:44.809Z,1024.8
2017-12-20T10:44:47.294Z,1024.8
2017-12-20T10:45:50.377Z,1024.8
2017-12-20T10:46:52.868Z,1024.8
2017-12-20T10:47:55.353Z,1024.8
2017-12-20T10:48:57.841Z,1024.8
2017-12-20T10:50:00.361Z,1024.8
2017-12-20T10:51:02.854Z,1024.8
2017-12-20T10:52:05.344Z,1024.8
2017-12-20T10:53:08.134Z,1024.8
2017-12-20T10:54:10.627Z,1024.9
2017-12-20T10:55:13.424Z,1024.8
2017-12-20T10:56:15.924Z,1024.9
2017-12-20T10:57:18.711Z,1024.8
2017-12-20T10:58:21.206Z,1024.8
2017-12-20T10:59:24.001Z,1024.8
2017-12-20T11:00:26.782Z,1024.8
2017-12-20T11:01:30.172Z,1024.8
2017-12-20T11:02:32.668Z,1024.7
2017-12-20T11:03:35.161Z,1024.7
2017-12-20T11:04:37.972Z,1024.7
2017-12-20T11:05:40.469Z,1024.7
2017-12-20T11:06:43.246Z,1024.7
2017-12-20T11:07:45.754Z,1024.7
2017-12-20T11:08:48.249Z,1024.7
2017-12-20T11:09:50.736Z,1024.7
2017-12-20T11:10:53.240Z,1024.7
2017-12-20T11:11:55.733Z,1024.7
2017-12-20T11:12:58.231Z,1024.7
2017-12-20T11:14:00.726Z,1024.7
2017-12-20T11:15:03.230Z,1024.6
2017-12-20T11:16:05.707Z,1024.6
2017-12-20T11:17:08.211Z,1024.6
2017-12-20T11:18:10.991Z,1024.6
2017-12-20T11:19:14.080Z,1024.6
2017-12-20T11:20:16.580Z,1024.6
2017-12-20T11:21:19.074Z,1024.6
2017-12-20T11:22:21.853Z,1024.5
2017-12-20T11:23:24.362Z,1024.5
2017-12-20T11:24:26.853Z,1024.5
2017-12-20T11:25:29.339Z,1024.5
2017-12-20T11:26:31.836Z,1024.4
2017-12-20T11:27:34.335Z,1024.5
2017-12-20T11:28:36.830Z,1024.5
2017-12-20T11:29:39.338Z,1024.5
2017-12-20T11:30:41.827Z,1024.5
2017-12-20T11:31:44.896Z,1024.4
2017-12-20T11:32:47.406Z,1024.5
2017-12-20T11:33:49.906Z,1024.4
2017-12-20T11:34:52.401Z,1024.4
2017-12-20T11:35:55.201Z,1024.4
2017-12-20T11:36:57.699Z,1024.4
2017-12-20T11:38:00.192Z,1024.4
2017-12-20T11:39:02.692Z,1024.3
2017-12-20T11:40:05.176Z,1024.4
2017-12-20T11:41:07.674Z,1024.3
2017-12-20T11:42:10.177Z,1024.3
2017-12-20T11:43:12.955Z,1024.3
2017-12-20T11:44:15.459Z,1024.3
2017-12-20T11:45:17.955Z,1024.3
2017-12-20T11:46:20.455Z,1024.3
2017-12-20T11:47:22.934Z,1024.3
2017-12-20T11:48:25.437Z,1024.3
2017-12-20T11:49:28.224Z,1024.3
2017-12-20T11:50:30.720Z,1024.3
2017-12-20T11:51:33.211Z,1024.3
2017-12-20T11:52:36.010Z,1024.3
2017-12-20T11:53:38.503Z,1024.3
2017-12-20T11:54:41.333Z,1024.3
2017-12-20T11:55:43.823Z,1024.3
2017-12-20T11:56:46.326Z,1024.3
2017-12-20T11:57:48.817Z,1024.3
2017-12-20T11:58:51.327Z,1024.3
2017-12-20T11:59:54.111Z,1024.3
2017-12-20T12:00:56.612Z,1024.3
2017-12-20T12:01:59.103Z,1024.2
2017-12-20T12:03:01.605Z,1024.3
2017-12-20T12:04:04.097Z,1024.2
2017-12-20T12:05:06.603Z,1024.2
2017-12-20T12:06:09.086Z,1024.2
2017-12-20T12:07:11.890Z,1024.2
2017-12-20T12:08:14.365Z,1024.2
2017-12-20T12:09:16.867Z,1024.2
2017-12-20T12:10:19.363Z,1024.2
2017-12-20T12:11:21.860Z,1024.1
2017-12-20T12:12:24.351Z,1024.2
2017-12-20T12:13:26.859Z,1024.2
2017-12-20T12:14:29.363Z,1024.2
2017-12-20T12:15:31.840Z,1024.1
2017-12-20T12:16:34.340Z,1024.2
2017-12-20T12:17:36.846Z,1024.1
2017-12-20T12:18:39.636Z,1024.1
2017-12-20T12:19:42.133Z,1024.1
2017-12-20T12:20:44.633Z,1024.1
2017-12-20T12:21:47.120Z,1024.1
2017-12-20T12:22:49.631Z,1024.1
2017-12-20T12:23:52.136Z,1024.1
2017-12-20T12:24:54.621Z,1024
2017-12-20T12:25:57.116Z,1024.1
2017-12-20T12:26:59.616Z,1024.1
2017-12-20T12:28:02.107Z,1024.1
2017-12-20T12:29:04.609Z,1024.1
2017-12-20T12:30:07.381Z,1024.1
2017-12-20T12:31:09.881Z,1024.1
2017-12-20T12:32:12.387Z,1024.1
2017-12-20T12:33:14.882Z,1024.1
2017-12-20T12:34:17.373Z,1024.2
2017-12-20T12:35:20.466Z,1024.1
2017-12-20T12:36:22.952Z,1024.1
2017-12-20T12:37:25.766Z,1024.1
2017-12-20T12:38:28.262Z,1024.1
2017-12-20T12:39:30.744Z,1024.1
2017-12-20T12:40:33.248Z,1024.1
2017-12-20T12:41:35.756Z,1024
2017-12-20T12:42:38.544Z,1024
2017-12-20T12:43:41.043Z,1024
2017-12-20T12:44:43.540Z,1024
2017-12-20T12:45:46.051Z,1024
2017-12-20T12:46:48.825Z,1023.9
2017-12-20T12:47:51.331Z,1023.9
2017-12-20T12:48:53.825Z,1023.9
2017-12-20T12:49:56.326Z,1024
2017-12-20T12:50:58.831Z,1024
2017-12-20T12:52:01.618Z,1024
2017-12-20T12:53:04.113Z,1024
2017-12-20T12:54:06.615Z,1023.9
2017-12-20T12:55:09.104Z,1023.9
2017-12-20T12:56:11.604Z,1023.9
2017-12-20T12:57:14.091Z,1023.8
2017-12-20T12:58:16.589Z,1023.8
2017-12-20T12:59:19.081Z,1023.8
2017-12-20T13:00:21.577Z,1023.8
2017-12-20T13:01:24.062Z,1023.9
2017-12-20T13:02:26.569Z,1023.9
2017-12-20T13:03:29.056Z,1023.8
2017-12-20T13:04:32.138Z,1023.8
2017-12-20T13:05:34.624Z,1023.8
2017-12-20T13:06:37.117Z,1023.9
2017-12-20T13:07:39.920Z,1023.9
2017-12-20T13:08:42.418Z,1023.9
2017-12-20T13:09:44.910Z,1023.9
2017-12-20T13:10:47.691Z,1023.8
2017-12-20T13:11:50.175Z,1023.9
2017-12-20T13:12:52.689Z,1023.8
2017-12-20T13:13:55.191Z,1023.8
2017-12-20T13:14:57.962Z,1023.8
2017-12-20T13:16:00.753Z,1023.9
2017-12-20T13:17:03.248Z,1023.8